createdAt,value
2018-08-03T00:00:06.071Z,43.4
2018-08-03T00:02:05.757Z,43.5
2018-08-03T00:04:08.011Z,43.5
2018-08-03T00:06:10.767Z,43.6
2018-08-03T00:08:05.444Z,43.4
2018-08-03T00:10:05.162Z,43.4
2018-08-03T00:12:10.918Z,43.4
2018-08-03T00:14:05.156Z,43.4
2018-08-03T00:16:05.484Z,43.4
2018-08-03T00:18:05.353Z,43.4
2018-08-03T00:20:15.696Z,43.4
2018-08-03T00:22:05.404Z,43.4
2018-08-03T00:24:07.610Z,43.5
2018-08-03T00:26:07.840Z,43.5
2018-08-03T00:28:08.099Z,43.6
2018-08-03T00:30:05.804Z,43.6
2018-08-03T00:32:05.535Z,43.6
2018-08-03T00:34:07.756Z,43.5
2018-08-03T00:36:05.489Z,43.5
2018-08-03T00:38:05.236Z,43.6
2018-08-03T00:40:05.512Z,43.6
2018-08-03T00:42:05.183Z,43.6
2018-08-03T00:44:05.402Z,43.6
2018-08-03T00:46:05.117Z,43.6
2018-08-03T00:48:05.808Z,43.6
2018-08-03T00:50:07.622Z,43.6
2018-08-03T00:52:05.438Z,43.5
2018-08-03T00:54:05.175Z,43.6
2018-08-03T00:56:05.869Z,43.6
2018-08-03T00:58:05.616Z,43.6
2018-08-03T01:00:10.394Z,43.7
2018-08-03T01:02:05.103Z,43.7
2018-08-03T01:04:05.430Z,43.8
2018-08-03T01:06:05.653Z,43.8
2018-08-03T01:08:10.356Z,43.9
2018-08-03T01:10:05.230Z,43.9
2018-08-03T01:12:05.885Z,43.9
2018-08-03T01:14:07.585Z,43.9
2018-08-03T01:16:05.285Z,43.8
2018-08-03T01:18:05.228Z,44
2018-08-03T01:20:08.081Z,44
2018-08-03T01:22:05.849Z,44
2018-08-03T01:24:05.500Z,44.1
2018-08-03T01:26:05.728Z,44.1
2018-08-03T01:28:05.994Z,44.1
2018-08-03T01:30:08.215Z,44.1
2018-08-03T01:32:05.441Z,44.1
2018-08-03T01:34:05.154Z,44.2
2018-08-03T01:36:08.357Z,44.3
2018-08-03T01:38:07.635Z,44.2
2018-08-03T01:40:05.358Z,44.2
2018-08-03T01:42:05.105Z,44.2
2018-08-03T01:44:05.777Z,44.2
2018-08-03T01:46:05.504Z,44.2
2018-08-03T01:48:05.210Z,44
2018-08-03T01:50:08.445Z,44.1
2018-08-03T01:52:12.703Z,44
2018-08-03T01:54:05.512Z,44.1
2018-08-03T01:56:07.830Z,44.1
2018-08-03T01:58:05.543Z,44.1
2018-08-03T02:00:10.890Z,44
2018-08-03T02:02:10.650Z,44.1
2018-08-03T02:04:13.486Z,44
2018-08-03T02:06:15.841Z,44
2018-08-03T02:08:05.556Z,43.9
2018-08-03T02:10:05.295Z,43.9
2018-08-03T02:12:04.974Z,44
2018-08-03T02:14:05.679Z,44
2018-08-03T02:16:05.956Z,44
2018-08-03T02:18:05.823Z,44.1
2018-08-03T02:20:05.556Z,44.2
2018-08-03T02:22:07.842Z,44.1
2018-08-03T02:24:05.533Z,44.1
2018-08-03T02:26:05.245Z,44.1
2018-08-03T02:28:05.937Z,44.2
2018-08-03T02:30:05.238Z,44.2
2018-08-03T02:32:05.982Z,44.2
2018-08-03T02:34:05.637Z,44.2
2018-08-03T02:36:10.373Z,44.2
2018-08-03T02:38:05.046Z,44.1
2018-08-03T02:40:05.822Z,44.3
2018-08-03T02:42:08.043Z,44.3
2018-08-03T02:44:05.751Z,44.1
2018-08-03T02:46:05.458Z,44.1
2018-08-03T02:48:07.685Z,44.1
2018-08-03T02:50:05.337Z,44.1
2018-08-03T02:52:05.106Z,44.3
2018-08-03T02:54:05.805Z,44.1
2018-08-03T02:56:04.990Z,44.1
2018-08-03T02:58:07.770Z,44.3
2018-08-03T03:00:06.035Z,44.2
2018-08-03T03:02:05.736Z,44.1
2018-08-03T03:04:10.469Z,44.2
2018-08-03T03:06:05.708Z,44.2
2018-08-03T03:08:06.014Z,44.2
2018-08-03T03:10:05.712Z,44.2
2018-08-03T03:12:05.459Z,44.2
2018-08-03T03:14:05.719Z,44.3
2018-08-03T03:16:05.429Z,44.2
2018-08-03T03:18:07.849Z,44.2
2018-08-03T03:20:10.563Z,44.2
2018-08-03T03:22:07.747Z,44.3
2018-08-03T03:24:05.403Z,44.3
2018-08-03T03:26:12.660Z,44.1
2018-08-03T03:28:10.506Z,44.4
2018-08-03T03:30:05.715Z,44.4
2018-08-03T03:32:06.005Z,44.4
2018-08-03T03:34:08.305Z,44.2
2018-08-03T03:36:05.989Z,44.4
2018-08-03T03:38:10.217Z,44.1
2018-08-03T03:40:05.906Z,44.1
2018-08-03T03:42:10.715Z,44.2
2018-08-03T03:44:05.479Z,44.2
2018-08-03T03:46:05.146Z,44.2
2018-08-03T03:48:08.346Z,44.2
2018-08-03T03:50:05.061Z,44.2
2018-08-03T03:52:05.911Z,44.2
2018-08-03T03:54:08.096Z,44.3
2018-08-03T03:56:05.770Z,44.3
2018-08-03T03:58:05.446Z,44.1
2018-08-03T04:00:13.214Z,44.1
2018-08-03T04:02:05.895Z,44.1
2018-08-03T04:04:05.560Z,44.1
2018-08-03T04:06:05.255Z,44.2
2018-08-03T04:08:06.024Z,44.3
2018-08-03T04:10:08.275Z,44
2018-08-03T04:12:05.951Z,44
2018-08-03T04:14:08.154Z,44.1
2018-08-03T04:16:05.825Z,44.1
2018-08-03T04:18:08.241Z,44.1
2018-08-03T04:20:08.530Z,44.1
2018-08-03T04:22:12.824Z,44.1
2018-08-03T04:24:05.522Z,44.1
2018-08-03T04:26:05.147Z,44.1
2018-08-03T04:28:05.849Z,44.1
2018-08-03T04:30:05.553Z,44.2
2018-08-03T04:32:08.292Z,44.1
2018-08-03T04:34:06.131Z,44.1
2018-08-03T04:36:05.349Z,44.1
2018-08-03T04:38:05.648Z,44.1
2018-08-03T04:40:05.290Z,44.1
2018-08-03T04:42:05.516Z,44.1
2018-08-03T04:44:05.280Z,44.1
2018-08-03T04:46:06.010Z,44.1
2018-08-03T04:48:05.684Z,44.1
2018-08-03T04:50:05.408Z,44.2
2018-08-03T04:52:12.060Z,43.8
2018-08-03T04:54:14.243Z,44.2
2018-08-03T04:56:08.034Z,44.2
2018-08-03T04:58:07.789Z,44.3
2018-08-03T05:00:08.056Z,44.4
2018-08-03T05:02:05.792Z,44.4
2018-08-03T05:04:05.585Z,44.3
2018-08-03T05:06:05.841Z,44.3
2018-08-03T05:08:05.518Z,44.3
2018-08-03T05:10:07.767Z,44.3
2018-08-03T05:12:08.000Z,44.4
2018-08-03T05:14:05.693Z,44.4
2018-08-03T05:16:05.448Z,44.2
2018-08-03T05:18:05.935Z,44.5
2018-08-03T05:20:10.708Z,44.2
2018-08-03T05:22:05.478Z,44.4
2018-08-03T05:24:05.760Z,44.4
2018-08-03T05:26:05.082Z,44.5
2018-08-03T05:28:13.365Z,44.4
2018-08-03T05:30:12.735Z,44.4
2018-08-03T05:32:13.119Z,44.5
2018-08-03T05:34:05.809Z,44.4
2018-08-03T05:36:05.739Z,44.4
2018-08-03T05:38:05.854Z,44.6
2018-08-03T05:40:05.620Z,44.3
2018-08-03T05:42:07.860Z,44.3
2018-08-03T05:44:07.658Z,44.5
2018-08-03T05:46:05.350Z,44.5
2018-08-03T05:48:07.607Z,44.4
2018-08-03T05:50:07.926Z,44.6
2018-08-03T05:52:05.299Z,44.5
2018-08-03T05:54:09.543Z,44.6
2018-08-03T05:56:10.237Z,44.6
2018-08-03T05:58:06.033Z,44.6
2018-08-03T06:00:10.899Z,44.2
2018-08-03T06:02:07.663Z,44.2
2018-08-03T06:04:05.501Z,44.2
2018-08-03T06:06:15.912Z,43.9
2018-08-03T06:08:05.691Z,44.1
2018-08-03T06:10:08.044Z,44.2
2018-08-03T06:12:08.264Z,44.5
2018-08-03T06:14:05.940Z,44.6
2018-08-03T06:16:05.841Z,44.7
2018-08-03T06:18:08.265Z,47
2018-08-03T06:20:05.932Z,47
2018-08-03T06:22:10.681Z,46.4
2018-08-03T06:24:05.899Z,46.3
2018-08-03T06:26:05.616Z,46.3
2018-08-03T06:28:05.300Z,46.3
2018-08-03T06:30:08.121Z,45.8
2018-08-03T06:32:05.808Z,45.6
2018-08-03T06:34:08.233Z,45.6
2018-08-03T06:36:05.919Z,45.5
2018-08-03T06:38:05.708Z,45.3
2018-08-03T06:40:13.605Z,45.1
2018-08-03T06:42:05.260Z,45.1
2018-08-03T06:44:05.967Z,45.1
2018-08-03T06:46:08.148Z,44.9
2018-08-03T06:48:08.342Z,44.7
2018-08-03T06:50:05.068Z,44.7
2018-08-03T06:52:05.759Z,44.9
2018-08-03T06:54:07.995Z,44.9
2018-08-03T06:56:05.681Z,44.9
2018-08-03T06:58:05.411Z,44.9
2018-08-03T07:00:05.161Z,44.9
2018-08-03T07:02:05.945Z,44.9
2018-08-03T07:04:05.165Z,44.7
2018-08-03T07:06:05.344Z,44.9
2018-08-03T07:08:07.595Z,45.1
2018-08-03T07:10:07.818Z,45
2018-08-03T07:12:08.090Z,44.8
2018-08-03T07:14:05.294Z,44.8
2018-08-03T07:16:06.017Z,44.8
2018-08-03T07:18:08.444Z,45.2
2018-08-03T07:20:05.361Z,45.4
2018-08-03T07:22:05.395Z,44.8
2018-08-03T07:24:05.044Z,44.8
2018-08-03T07:26:08.354Z,45
2018-08-03T07:28:05.077Z,45
2018-08-03T07:30:07.807Z,45
2018-08-03T07:32:05.476Z,45
2018-08-03T07:34:05.178Z,44.8
2018-08-03T07:36:05.911Z,44.7
2018-08-03T07:38:05.102Z,44.8
2018-08-03T07:40:05.915Z,44.6
2018-08-03T07:42:05.831Z,44.8
2018-08-03T07:44:05.113Z,44.8
2018-08-03T07:46:05.795Z,44.6
2018-08-03T07:48:05.575Z,44.6
2018-08-03T07:50:05.357Z,44.4
2018-08-03T07:52:05.084Z,44.5
2018-08-03T07:54:05.860Z,44.5
2018-08-03T07:56:08.085Z,44.5
2018-08-03T07:58:05.733Z,44.6
2018-08-03T08:00:05.381Z,44.6
2018-08-03T08:02:05.100Z,44.4
2018-08-03T08:04:05.831Z,44.5
2018-08-03T08:06:05.065Z,44.6
2018-08-03T08:08:05.733Z,44.8
2018-08-03T08:10:05.420Z,44.8
2018-08-03T08:12:05.140Z,44.7
2018-08-03T08:14:05.802Z,44.8
2018-08-03T08:16:05.509Z,44.8
2018-08-03T08:18:10.515Z,44.8
2018-08-03T08:20:07.703Z,44.8
2018-08-03T08:22:07.946Z,44.8
2018-08-03T08:24:05.189Z,45
2018-08-03T08:26:06.020Z,45
2018-08-03T08:28:08.429Z,45
2018-08-03T08:30:05.247Z,45
2018-08-03T08:32:06.006Z,44.9
2018-08-03T08:34:05.311Z,44.9
2018-08-03T08:36:13.625Z,45.1
2018-08-03T08:38:05.079Z,45
2018-08-03T08:40:05.792Z,45
2018-08-03T08:42:05.553Z,45.1
2018-08-03T08:44:07.818Z,45.1
2018-08-03T08:46:07.706Z,44.9
2018-08-03T08:48:08.454Z,44.9
2018-08-03T08:50:10.189Z,44.7
2018-08-03T08:52:10.564Z,44.9
2018-08-03T08:54:05.257Z,44.9
2018-08-03T08:56:04.993Z,44.6
2018-08-03T08:58:08.338Z,44.6
2018-08-03T09:00:05.188Z,44.6
2018-08-03T09:02:13.477Z,44.6
2018-08-03T09:04:05.717Z,44.6
2018-08-03T09:06:05.408Z,44.6
2018-08-03T09:08:05.099Z,44.5
2018-08-03T09:10:05.921Z,44.3
2018-08-03T09:12:05.779Z,44.4
2018-08-03T09:14:05.496Z,44.5
2018-08-03T09:16:05.261Z,44.7
2018-08-03T09:18:05.204Z,44.7
2018-08-03T09:20:05.962Z,44.6
2018-08-03T09:22:05.719Z,44.6
2018-08-03T09:24:05.618Z,44.5
2018-08-03T09:26:05.274Z,44.6
2018-08-03T09:28:05.942Z,44.9
2018-08-03T09:30:05.227Z,44.7
2018-08-03T09:32:05.956Z,44.4
2018-08-03T09:34:07.662Z,44.6
2018-08-03T09:36:05.898Z,44.6
2018-08-03T09:38:05.588Z,44.9
2018-08-03T09:40:05.299Z,44.8
2018-08-03T09:42:06.012Z,45
2018-08-03T09:44:05.725Z,44.8
2018-08-03T09:46:05.963Z,44.6
2018-08-03T09:48:05.709Z,44.6
2018-08-03T09:50:07.672Z,44.6
2018-08-03T09:52:16.882Z,44.6
2018-08-03T09:54:05.398Z,44.7
2018-08-03T09:56:07.631Z,44.6
2018-08-03T09:58:08.011Z,44.6
2018-08-03T10:00:06.252Z,44.6
2018-08-03T10:02:06.890Z,45
2018-08-03T10:04:05.563Z,45
2018-08-03T10:06:05.272Z,44.6
2018-08-03T10:08:05.967Z,45
2018-08-03T10:10:08.289Z,44.8
2018-08-03T10:12:06.022Z,44.7
2018-08-03T10:14:05.737Z,44.4
2018-08-03T10:16:05.417Z,44.7
2018-08-03T10:18:05.329Z,44.9
2018-08-03T10:20:05.018Z,44.8
2018-08-03T10:22:05.671Z,44.7
2018-08-03T10:24:05.333Z,44.8
2018-08-03T10:26:05.590Z,44.6
2018-08-03T10:28:07.610Z,44.8
2018-08-03T10:30:05.904Z,44.8
2018-08-03T10:32:05.608Z,44.8
2018-08-03T10:34:05.333Z,44.7
2018-08-03T10:36:07.581Z,44.5
2018-08-03T10:38:05.255Z,44.5
2018-08-03T10:40:05.956Z,44.8
2018-08-03T10:42:08.163Z,44.9
2018-08-03T10:44:05.941Z,44.9
2018-08-03T10:46:12.868Z,44.8
2018-08-03T10:48:05.620Z,44.8
2018-08-03T10:50:07.899Z,44.8
2018-08-03T10:52:05.579Z,44.8
2018-08-03T10:54:06.775Z,44.8
2018-08-03T10:56:05.484Z,44.8
2018-08-03T10:58:07.707Z,44.9
2018-08-03T11:00:05.751Z,45
2018-08-03T11:02:05.525Z,45
2018-08-03T11:04:05.197Z,45
2018-08-03T11:06:15.977Z,45
2018-08-03T11:08:05.617Z,45
2018-08-03T11:10:07.543Z,45.2
2018-08-03T11:12:05.826Z,45.2
2018-08-03T11:14:05.737Z,44.9
2018-08-03T11:16:05.460Z,45.1
2018-08-03T11:18:10.439Z,45.1
2018-08-03T11:20:05.127Z,45
2018-08-03T11:22:05.801Z,45
2018-08-03T11:24:11.021Z,45
2018-08-03T11:26:05.929Z,45.2
2018-08-03T11:28:05.587Z,45
2018-08-03T11:30:05.803Z,45.1
2018-08-03T11:32:05.436Z,45
2018-08-03T11:34:05.091Z,44.9
2018-08-03T11:36:05.997Z,44.9
2018-08-03T11:38:05.687Z,45
2018-08-03T11:40:07.864Z,44.9
2018-08-03T11:42:05.524Z,45
2018-08-03T11:44:05.181Z,44.9
2018-08-03T11:46:05.901Z,45
2018-08-03T11:48:07.640Z,45
2018-08-03T11:50:05.378Z,45
2018-08-03T11:52:10.148Z,45
2018-08-03T11:54:05.920Z,45
2018-08-03T11:56:05.355Z,45.2
2018-08-03T11:58:05.526Z,45.1
2018-08-03T12:00:07.762Z,45.2
2018-08-03T12:02:07.982Z,45.2
2018-08-03T12:04:10.278Z,45.1
2018-08-03T12:06:06.027Z,45.1
2018-08-03T12:08:07.797Z,45.1
2018-08-03T12:10:05.691Z,45
2018-08-03T12:12:05.909Z,45
2018-08-03T12:14:05.164Z,45
2018-08-03T12:16:08.678Z,44.9
2018-08-03T12:18:07.689Z,45.2
2018-08-03T12:20:05.372Z,45
2018-08-03T12:22:05.069Z,45.1
2018-08-03T12:24:05.749Z,45.1
2018-08-03T12:26:10.553Z,45.1
2018-08-03T12:28:05.232Z,45.1
2018-08-03T12:30:05.460Z,45.1
2018-08-03T12:32:10.218Z,45
2018-08-03T12:34:05.916Z,45.1
2018-08-03T12:36:06.606Z,44.9
2018-08-03T12:38:05.350Z,44.9
2018-08-03T12:40:05.061Z,45
2018-08-03T12:42:05.781Z,45.1
2018-08-03T12:44:05.407Z,45.1
2018-08-03T12:46:10.463Z,45
2018-08-03T12:48:05.202Z,32
2018-08-03T12:50:05.969Z,44.9
2018-08-03T12:52:05.693Z,45.2
2018-08-03T12:54:05.917Z,45.3
2018-08-03T12:56:05.154Z,45.3
2018-08-03T12:58:05.240Z,45.2
2018-08-03T13:00:05.956Z,45.2
2018-08-03T13:02:05.640Z,45
2018-08-03T13:04:07.957Z,45.2
2018-08-03T13:06:05.925Z,45.4
2018-08-03T13:08:06.151Z,45.2
2018-08-03T13:10:05.852Z,45.1
2018-08-03T13:12:08.107Z,45
2018-08-03T13:14:05.755Z,45
2018-08-03T13:16:05.460Z,45.1
2018-08-03T13:18:05.316Z,45.1
2018-08-03T13:20:05.602Z,45
2018-08-03T13:22:05.266Z,45.3
2018-08-03T13:24:06.079Z,45.3
2018-08-03T13:26:05.390Z,45.3
2018-08-03T13:28:05.173Z,45.4
2018-08-03T13:30:05.895Z,45.1
2018-08-03T13:32:05.659Z,45.2
2018-08-03T13:34:07.901Z,45.1
2018-08-03T13:36:05.185Z,45.1
2018-08-03T13:38:05.890Z,45
2018-08-03T13:40:05.576Z,45.1
2018-08-03T13:42:07.743Z,45
2018-08-03T13:44:05.660Z,45
2018-08-03T13:46:06.060Z,44.7
2018-08-03T13:48:05.254Z,44.9
2018-08-03T13:50:05.952Z,44.8
2018-08-03T13:52:05.930Z,44.5
2018-08-03T13:54:07.075Z,44.6
2018-08-03T13:56:13.381Z,44.3
2018-08-03T13:58:10.077Z,44.3
2018-08-03T14:00:08.302Z,44.3
2018-08-03T14:02:09.783Z,44
2018-08-03T14:04:05.719Z,44
2018-08-03T14:06:05.760Z,43.9
2018-08-03T14:08:08.484Z,44.1
2018-08-03T14:10:08.241Z,43.9
2018-08-03T14:12:05.502Z,43.8
2018-08-03T14:14:07.894Z,43.8
2018-08-03T14:16:05.714Z,43.8
2018-08-03T14:18:05.599Z,44
2018-08-03T14:20:07.820Z,43.6
2018-08-03T14:22:08.286Z,43.6
2018-08-03T14:24:05.152Z,43.6
2018-08-03T14:26:05.331Z,43.6
2018-08-03T14:28:08.510Z,43.5
2018-08-03T14:30:05.242Z,43.5
2018-08-03T14:32:05.743Z,43.3
2018-08-03T14:34:05.449Z,43.4
2018-08-03T14:36:07.656Z,43.5
2018-08-03T14:38:05.905Z,43.4
2018-08-03T14:40:15.313Z,43.6
2018-08-03T14:42:06.028Z,43.6
2018-08-03T14:44:05.807Z,43.5
2018-08-03T14:46:10.921Z,43.5
2018-08-03T14:48:05.556Z,43.3
2018-08-03T14:50:06.492Z,43.4
2018-08-03T14:52:05.338Z,43.4
2018-08-03T14:54:05.184Z,43.5
2018-08-03T14:56:10.469Z,43.1
2018-08-03T14:58:05.182Z,43.1
2018-08-03T15:00:08.388Z,43.2
2018-08-03T15:02:05.093Z,43
2018-08-03T15:04:10.894Z,43.1
2018-08-03T15:06:08.145Z,43.1
2018-08-03T15:08:08.354Z,43.3
2018-08-03T15:10:05.032Z,43.2
2018-08-03T15:12:15.830Z,43.3
2018-08-03T15:14:18.235Z,43.4
2018-08-03T15:16:05.928Z,43.4
2018-08-03T15:18:08.319Z,43.2
2018-08-03T15:20:11.062Z,43.2
2018-08-03T15:22:10.800Z,43.3
2018-08-03T15:24:05.447Z,43.2
2018-08-03T15:26:05.163Z,43.3
2018-08-03T15:28:05.886Z,43.4
2018-08-03T15:30:08.104Z,43.1
2018-08-03T15:32:05.829Z,17.7
2018-08-03T15:34:05.533Z,43
2018-08-03T15:36:07.715Z,42.6
2018-08-03T15:38:05.510Z,42.6
2018-08-03T15:40:05.281Z,42.6
2018-08-03T15:42:05.041Z,42.6
2018-08-03T15:44:05.729Z,42.5
2018-08-03T15:46:05.488Z,42.3
2018-08-03T15:48:07.714Z,42.2
2018-08-03T15:50:05.404Z,42.2
2018-08-03T15:52:05.339Z,42.1
2018-08-03T15:54:07.574Z,41.8
2018-08-03T15:56:05.285Z,41.8
2018-08-03T15:58:05.977Z,41.8
2018-08-03T16:00:05.640Z,41.6
2018-08-03T16:02:05.284Z,41.6
2018-08-03T16:04:05.522Z,41.3
2018-08-03T16:06:05.234Z,41.2
2018-08-03T16:08:05.935Z,41.3
2018-08-03T16:10:05.877Z,41.3
2018-08-03T16:12:05.585Z,41.3
2018-08-03T16:14:05.446Z,41.2
2018-08-03T16:16:05.167Z,41.2
2018-08-03T16:18:05.080Z,41.1
2018-08-03T16:20:06.775Z,40.9
2018-08-03T16:22:05.522Z,41.1
2018-08-03T16:24:07.831Z,41.2
2018-08-03T16:26:05.566Z,41.1
2018-08-03T16:28:05.614Z,41.3
2018-08-03T16:30:10.962Z,41.1
2018-08-03T16:32:05.801Z,40.9
2018-08-03T16:34:05.742Z,40.9
2018-08-03T16:36:05.464Z,40.8
2018-08-03T16:38:08.268Z,40.2
2018-08-03T16:40:06.021Z,40.3
2018-08-03T16:42:05.690Z,40.2
2018-08-03T16:44:05.340Z,40.2
2018-08-03T16:46:12.785Z,40.2
2018-08-03T16:48:05.457Z,40.2
2018-08-03T16:50:07.684Z,40.3
2018-08-03T16:52:08.244Z,40.2
2018-08-03T16:54:06.131Z,40.2
2018-08-03T16:56:05.882Z,40.2
2018-08-03T16:58:05.094Z,40.2
2018-08-03T17:00:05.799Z,40.2
2018-08-03T17:02:05.513Z,40.1
2018-08-03T17:04:05.758Z,40.5
2018-08-03T17:06:05.486Z,40.4
2018-08-03T17:08:05.149Z,40.2
2018-08-03T17:10:05.861Z,40.2
2018-08-03T17:12:07.843Z,40.2
2018-08-03T17:14:10.668Z,40.2
2018-08-03T17:16:05.382Z,40.2
2018-08-03T17:18:05.508Z,40.2
2018-08-03T17:20:06.431Z,40.2
2018-08-03T17:22:10.330Z,40.2
2018-08-03T17:24:05.119Z,40.2
2018-08-03T17:26:05.940Z,40.2
2018-08-03T17:28:05.312Z,40.2
2018-08-03T17:30:05.232Z,40.2
2018-08-03T17:32:06.132Z,40.2
2018-08-03T17:34:05.222Z,40.2
2018-08-03T17:36:05.922Z,40.2
2018-08-03T17:38:05.568Z,40
2018-08-03T17:40:08.362Z,40
2018-08-03T17:42:05.056Z,40
2018-08-03T17:44:05.775Z,40
2018-08-03T17:46:06.085Z,40
2018-08-03T17:48:08.283Z,39.8
2018-08-03T17:50:05.976Z,39.8
2018-08-03T17:52:05.828Z,39.6
2018-08-03T17:54:05.526Z,39.6
2018-08-03T17:56:05.362Z,39.8
2018-08-03T17:58:05.331Z,39.8
2018-08-03T18:00:05.011Z,40
2018-08-03T18:02:05.641Z,40
2018-08-03T18:04:05.307Z,40.3
2018-08-03T18:06:05.028Z,40.3
2018-08-03T18:08:05.680Z,40.2
2018-08-03T18:10:05.949Z,40.4
2018-08-03T18:12:05.706Z,40.3
2018-08-03T18:14:05.926Z,40
2018-08-03T18:16:05.628Z,40.1
2018-08-03T18:18:05.503Z,40.3
2018-08-03T18:20:05.207Z,39.8
2018-08-03T18:22:10.998Z,40.5
2018-08-03T18:24:05.429Z,40.5
2018-08-03T18:26:05.161Z,40.3
2018-08-03T18:28:05.436Z,39.8
2018-08-03T18:30:10.451Z,40
2018-08-03T18:32:05.120Z,39.8
2018-08-03T18:34:10.863Z,39.6
2018-08-03T18:36:05.614Z,39.6
2018-08-03T18:38:05.287Z,40
2018-08-03T18:40:05.972Z,40
2018-08-03T18:42:05.674Z,40.3
2018-08-03T18:44:10.531Z,40.4
2018-08-03T18:46:05.903Z,40.4
2018-08-03T18:48:05.918Z,40.4
2018-08-03T18:50:06.067Z,40
2018-08-03T18:52:05.918Z,40.5
2018-08-03T18:54:08.281Z,40.1
2018-08-03T18:56:05.938Z,40.1
2018-08-03T18:58:05.235Z,40.4
2018-08-03T19:00:05.924Z,40.3
2018-08-03T19:02:05.572Z,40.5
2018-08-03T19:04:07.790Z,40.5
2018-08-03T19:06:05.013Z,40.5
2018-08-03T19:08:05.684Z,40.8
2018-08-03T19:10:05.543Z,40.6
2018-08-03T19:12:05.263Z,40.7
2018-08-03T19:14:05.958Z,40.6
2018-08-03T19:16:05.670Z,40.7
2018-08-03T19:18:05.578Z,40.7
2018-08-03T19:20:06.326Z,40.7
2018-08-03T19:22:05.147Z,40.6
2018-08-03T19:24:05.498Z,40.8
2018-08-03T19:26:07.685Z,40.7
2018-08-03T19:28:05.595Z,40.5
2018-08-03T19:30:05.260Z,40.6
2018-08-03T19:32:06.093Z,40.6
2018-08-03T19:34:05.877Z,40.7
2018-08-03T19:36:08.340Z,40.8
2018-08-03T19:38:08.549Z,40.9
2018-08-03T19:40:05.949Z,40.9
2018-08-03T19:42:05.201Z,40.9
2018-08-03T19:44:05.639Z,40.8
2018-08-03T19:46:05.777Z,40.9
2018-08-03T19:48:05.514Z,40.9
2018-08-03T19:50:05.215Z,41
2018-08-03T19:52:05.952Z,41
2018-08-03T19:54:05.657Z,41.3
2018-08-03T19:56:05.415Z,41.4
2018-08-03T19:58:05.210Z,41
2018-08-03T20:00:05.520Z,41.3
2018-08-03T20:02:05.220Z,41.5
2018-08-03T20:04:05.981Z,41.4
2018-08-03T20:06:10.748Z,41.4
2018-08-03T20:08:07.979Z,41.4
2018-08-03T20:10:05.697Z,41.3
2018-08-03T20:12:05.668Z,41.6
2018-08-03T20:14:08.441Z,41.5
2018-08-03T20:16:08.199Z,41.4
2018-08-03T20:18:05.158Z,41.4
2018-08-03T20:20:13.455Z,41.2
2018-08-03T20:22:07.674Z,41.3
2018-08-03T20:24:10.405Z,41.2
2018-08-03T20:26:05.121Z,41
2018-08-03T20:28:05.412Z,41.4
2018-08-03T20:30:05.632Z,41.1
2018-08-03T20:32:05.600Z,41.1
2018-08-03T20:34:07.944Z,40.9
2018-08-03T20:36:05.868Z,40.9
2018-08-03T20:38:10.789Z,41
2018-08-03T20:40:06.051Z,41
2018-08-03T20:42:05.700Z,41.1
2018-08-03T20:44:11.648Z,40.8
2018-08-03T20:46:09.372Z,40.8
2018-08-03T20:48:06.097Z,41.2
2018-08-03T20:50:08.294Z,41.1
2018-08-03T20:52:06.298Z,41.1
2018-08-03T20:54:05.149Z,41
2018-08-03T20:56:07.972Z,41
2018-08-03T20:58:10.796Z,41
2018-08-03T21:00:18.220Z,41.1
2018-08-03T21:02:05.926Z,41.1
2018-08-03T21:04:05.285Z,41.2
2018-08-03T21:06:05.989Z,41.1
2018-08-03T21:08:05.681Z,41.3
2018-08-03T21:10:06.115Z,41.4
2018-08-03T21:12:05.922Z,41.2
2018-08-03T21:14:10.843Z,41.3
2018-08-03T21:16:05.604Z,41.3
2018-08-03T21:18:05.818Z,41.4
2018-08-03T21:20:08.071Z,41.5
2018-08-03T21:22:08.487Z,41.6
2018-08-03T21:24:08.289Z,41.5
2018-08-03T21:26:05.997Z,41.6
2018-08-03T21:28:05.713Z,41.5
2018-08-03T21:30:05.480Z,41.6
2018-08-03T21:32:05.337Z,41.6
2018-08-03T21:34:05.043Z,41.5
2018-08-03T21:36:05.465Z,41.5
2018-08-03T21:38:05.169Z,41.6
2018-08-03T21:40:05.429Z,41.3
2018-08-03T21:42:06.120Z,41.3
2018-08-03T21:44:06.288Z,41.4
2018-08-03T21:46:08.531Z,41.7
2018-08-03T21:48:10.309Z,41.4
2018-08-03T21:50:08.549Z,41.6
2018-08-03T21:52:05.203Z,41.5
2018-08-03T21:54:08.406Z,41.6
2018-08-03T21:56:05.106Z,41.7
2018-08-03T21:58:10.765Z,41.7
2018-08-03T22:00:05.581Z,41.8
2018-08-03T22:02:05.502Z,41.8
2018-08-03T22:04:07.912Z,41.8
2018-08-03T22:06:05.546Z,42
2018-08-03T22:08:05.248Z,41.8
2018-08-03T22:10:05.987Z,42
2018-08-03T22:12:05.826Z,41.8
2018-08-03T22:14:05.736Z,41.9
2018-08-03T22:16:05.956Z,41.9
2018-08-03T22:18:05.954Z,41.8
2018-08-03T22:20:10.729Z,41.9
2018-08-03T22:22:10.417Z,41.9
2018-08-03T22:24:05.550Z,41.8
2018-08-03T22:26:05.308Z,41.9
2018-08-03T22:28:06.100Z,42
2018-08-03T22:30:05.875Z,42.2
2018-08-03T22:32:05.531Z,42.2
2018-08-03T22:34:05.731Z,42.2
2018-08-03T22:36:07.919Z,42.1
2018-08-03T22:38:07.653Z,42.3
2018-08-03T22:40:05.363Z,42.1
2018-08-03T22:42:05.134Z,42.2
2018-08-03T22:44:14.889Z,42.3
2018-08-03T22:46:59.261Z,42.4
2018-08-03T22:48:05.116Z,42.6
2018-08-03T22:50:08.528Z,42.4
2018-08-03T22:52:05.727Z,42.4
2018-08-03T22:54:05.985Z,42.4
2018-08-03T22:56:05.658Z,42.7
2018-08-03T22:58:05.338Z,42.6
2018-08-03T23:00:05.514Z,42.3
2018-08-03T23:02:05.816Z,42.4
2018-08-03T23:04:05.623Z,42.5
2018-08-03T23:06:07.918Z,42.5
2018-08-03T23:08:05.844Z,42.5
2018-08-03T23:10:08.276Z,42.4
2018-08-03T23:12:06.004Z,42.4
2018-08-03T23:14:05.887Z,42.4
2018-08-03T23:16:05.110Z,42.4
2018-08-03T23:18:05.035Z,42.5
2018-08-03T23:20:08.282Z,42.4
2018-08-03T23:22:05.980Z,42.4
2018-08-03T23:24:07.718Z,42.3
2018-08-03T23:26:05.402Z,42.5
2018-08-03T23:28:07.747Z,42.1
2018-08-03T23:30:05.944Z,42.1
2018-08-03T23:32:05.657Z,42.3
2018-08-03T23:34:12.995Z,42.2
2018-08-03T23:36:05.329Z,42.2
2018-08-03T23:38:05.025Z,42.2
2018-08-03T23:40:05.801Z,42.2
2018-08-03T23:42:05.990Z,42.1
2018-08-03T23:44:05.220Z,42
2018-08-03T23:46:05.935Z,41.9
2018-08-03T23:48:05.614Z,41.8
2018-08-03T23:50:07.902Z,42
2018-08-03T23:52:05.641Z,41.8
2018-08-03T23:54:05.357Z,42
2018-08-03T23:56:05.664Z,41.9
2018-08-03T23:58:06.017Z,41.8
